Flight Track Log - Related Links

Times and Time Zones

All times are in EDT time to prevent confusion due to time zone crossing. See the DAL3626 flight status page for this flight to view local times or setup timezone preferences in your user account.

Time Position Orientation Groundspeed Altitude Reporting Facility
EDT Latitude Longitude Course Direction KTS MPH feet Rate Location/Type
Wed 11:48:57 AM 44.9000 -93.2667 133° Southeast 171 197 2,400  Level Minneapolis TRACON
Wed 11:49:35 AM 44.8933 -93.3056 256° West 200 230 3,700 1,879 Climbing Minneapolis Center
Wed 11:50:36 AM 44.8733 -93.3939 252° West 252 290 5,500 2,390 Climbing Minneapolis Center
Wed 11:51:00 AM 44.4786 -92.9826 136° Southeast  Level FlightAware Approximate
Wed 11:51:38 AM 44.7919 -93.3686 168° South 279 321 8,600  Level Minneapolis Center
Wed 11:52:00 AM 44.3898 -92.8897 144° Southeast  Level FlightAware Approximate
Wed 11:52:39 AM 44.7364 -93.2997 139° Southeast 274 315 10,400  Level Minneapolis Center
Wed 11:53:00 AM 44.3123 -92.7790 144° Southeast  Level FlightAware Approximate
Wed 11:53:41 AM 44.6744 -93.2244 139° Southeast 305 351 11,800  Level Minneapolis Center
Wed 11:54:00 AM 44.2299 -92.6864 133° Southeast  Level FlightAware Approximate
Wed 11:54:42 AM 44.6069 -93.1419 139° Southeast 324 373 13,200  Level Minneapolis Center
Wed 11:55:44 AM 44.5275 -93.0456 139° Southeast 315 362 15,500 1,756 Climbing Minneapolis Center
Wed 11:56:45 AM 44.4583 -92.9628 139° Southeast 327 376 16,800 1,122 Climbing Minneapolis Center
Wed 11:57:47 AM 44.3858 -92.8756 139° Southeast 344 396 17,800 1,113 Climbing Minneapolis Center
Wed 11:58:49 AM 44.3119 -92.7864 139° Southeast 352 405 19,100 1,171 Climbing Minneapolis Center
Wed 11:59:50 AM 44.2389 -92.6958 138° Southeast 352 405 20,200 1,024 Climbing Minneapolis Center
Wed 12:00:52 PM 44.1625 -92.6022 139° Southeast 362 417 21,200 976 Climbing Minneapolis Center
Wed 12:01:53 PM 44.0839 -92.5064 139° Southeast 375 432 22,200 1,122 Climbing Minneapolis Center
Wed 12:02:55 PM 43.9886 -92.3892 138° Southeast 380 437 23,500 1,073 Climbing Minneapolis Center
Wed 12:03:56 PM 43.9097 -92.2947 139° Southeast 377 434 24,400 780 Climbing Minneapolis Center
Wed 12:04:58 PM 43.8292 -92.1961 139° Southeast 385 443 25,100 677 Climbing Minneapolis Center
Wed 12:06:00 PM 43.7464 -92.0925 138° Southeast 398 458 25,800 634 Climbing Minneapolis Center
Wed 12:07:01 PM 43.6644 -91.9936 139° Southeast 396 456 26,400 537 Climbing Minneapolis Center
Wed 12:08:03 PM 43.5808 -91.8942 139° Southeast 398 458 26,900 484 Climbing Minneapolis Center
Wed 12:09:05 PM 43.4969 -91.7944 139° Southeast 400 460 27,400 439 Climbing Minneapolis Center
Wed 12:10:06 PM 43.4286 -91.7153 140° Southeast 401 461 27,800 537 Climbing Minneapolis Center
Wed 12:11:08 PM 43.3086 -91.5722 139° Southeast 405 466 28,500 585 Climbing Minneapolis Center
Wed 12:12:09 PM 43.2194 -91.4789 143° Southeast 406 467 29,000 244 Climbing Minneapolis Center
Wed 12:13:11 PM 43.1247 -91.3897 145° Southeast 410 472 29,000  Level Minneapolis Center
Wed 12:14:13 PM 43.0286 -91.2981 145° Southeast 417 480 29,000  Level Minneapolis Center
Wed 12:15:14 PM 42.9306 -91.2050 145° Southeast 424 488 29,000  Level Minneapolis Center
Wed 12:15:50 PM 42.8744 -91.1467 143° Southeast 429 494 29,000  Level Chicago Center
Wed 12:16:52 PM 42.8092 -91.0053 122° Southeast 444 511 29,000  Level Chicago Center
Wed 12:17:54 PM 42.7464 -90.8636 121° Southeast 441 507 29,000  Level Chicago Center
Wed 12:18:56 PM 42.6686 -90.6953 122° Southeast 443 510 29,000  Level Chicago Center
Wed 12:19:58 PM 42.6042 -90.5556 122° Southeast 440 506 29,000  Level Chicago Center
Wed 12:20:59 PM 42.5400 -90.4156 122° Southeast 442 509 29,000  Level Chicago Center
Wed 12:22:01 PM 42.4764 -90.2756 122° Southeast 441 507 29,000  Level Chicago Center
Wed 12:23:03 PM 42.4108 -90.1361 122° Southeast 442 509 29,000  Level Chicago Center
Wed 12:24:05 PM 42.3481 -89.9975 121° Southeast 439 505 29,000  Level Chicago Center
Wed 12:25:07 PM 42.2714 -89.8350 122° Southeast 442 509 29,000  Level Chicago Center
Wed 12:26:09 PM 42.2064 -89.6936 122° Southeast 443 510 29,000  Level Chicago Center
Wed 12:27:11 PM 42.1394 -89.5539 123° Southeast 444 511 29,000  Level Chicago Center
Wed 12:28:13 PM 42.0742 -89.4144 122° Southeast 444 511 29,000  Level Chicago Center
Wed 12:29:15 PM 42.0039 -89.2658 122° Southeast 443 510 29,000  Level Chicago Center
Wed 12:30:17 PM 41.9381 -89.1275 123° Southeast 441 507 29,000  Level Chicago Center
Wed 12:31:19 PM 41.8592 -88.9628 123° Southeast 440 506 29,000  Level Chicago Center
Wed 12:32:21 PM 41.7917 -88.8233 123° Southeast 445 512 29,000  Level Chicago Center
Wed 12:33:23 PM 41.7258 -88.6872 123° Southeast 440 506 29,000  Level Chicago Center
Wed 12:34:25 PM 41.6597 -88.5514 123° Southeast 440 506 29,000  Level Chicago Center
Wed 12:35:27 PM 41.5936 -88.4142 123° Southeast 442 509 29,000  Level Chicago Center
Wed 12:36:29 PM 41.4894 -88.2889 138° Southeast 441 507 29,000  Level Chicago Center
Wed 12:37:31 PM 41.3806 -88.2306 158° South 434 499 29,000  Level Chicago Center
Wed 12:38:33 PM 41.2711 -88.1725 158° South 438 504 29,000  Level Chicago Center
Wed 12:39:35 PM 41.1619 -88.1128 158° South 433 498 29,000  Level Chicago Center
Wed 12:40:37 PM 41.0278 -88.0419 158° South 436 502 29,000  Level Chicago Center
Wed 12:41:39 PM 40.9158 -87.9819 158° South 437 503 29,000  Level Chicago Center
Wed 12:42:41 PM 40.8039 -87.9225 158° South 436 502 29,000  Level Chicago Center
Wed 12:43:43 PM 40.6919 -87.8633 158° South 436 502 29,000  Level Chicago Center
Wed 12:44:45 PM 40.5797 -87.8042 158° South 438 504 29,000  Level Chicago Center
Wed 12:45:48 PM 40.4439 -87.7350 159° South 439 505 29,000  Level Chicago Center
Wed 12:46:50 PM 40.3300 -87.6756 158° South 441 507 29,000  Level Chicago Center
Wed 12:47:18 PM 40.2808 -87.6525 160° South 441 507 29,000  Level Indianapolis Center
Wed 12:47:52 PM 40.2169 -87.6169 157° South 440 506 29,000 -688 Level Chicago Center
Wed 12:48:54 PM 40.0919 -87.5533 159° South 442 509 27,900 -1,213 Descending Chicago Center
Wed 12:49:21 PM 40.0322 -87.5242 159° South 442 509 27,200 -1,011 Descending Indianapolis Center
Wed 12:50:23 PM 39.9192 -87.4667 159° South 436 502 26,400 -871 Descending Indianapolis Center
Wed 12:51:25 PM 39.8094 -87.4111 159° South 424 488 25,400 -968 Descending Indianapolis Center
Wed 12:52:27 PM 39.7022 -87.3558 158° South 415 478 24,400 -968 Descending Indianapolis Center
Wed 12:53:29 PM 39.5958 -87.3036 159° South 408 470 23,400 -1,016 Descending Indianapolis Center
Wed 12:54:31 PM 39.4917 -87.2478 158° South 404 465 22,300 -1,065 Descending Indianapolis Center
Wed 12:55:33 PM 39.3947 -87.1308 137° Southeast 406 467 21,200 -726 Descending Indianapolis Center
Wed 12:56:35 PM 39.3139 -87.0300 136° Southeast 405 466 20,800 -968 Descending Indianapolis Center
Wed 12:57:37 PM 39.2361 -86.9347 136° Southeast 390 449 19,200 -1,452 Descending Indianapolis Center
Wed 12:58:39 PM 39.1617 -86.8442 137° Southeast 373 429 17,800 -1,355 Descending Indianapolis Center
Wed 12:59:41 PM 39.0894 -86.7553 136° Southeast 359 413 16,400 -1,452 Descending Indianapolis Center
Wed 01:00:43 PM 39.0197 -86.6694 136° Southeast 349 402 14,800 -1,597 Descending Indianapolis Center
Wed 01:01:45 PM 38.9417 -86.5758 137° Southeast 338 389 13,100 -1,548 Descending Indianapolis Center
Wed 01:02:47 PM 38.8764 -86.4969 137° Southeast 328 377 11,600 -1,016 Descending Indianapolis Center
Wed 01:03:49 PM 38.8106 -86.4172 137° Southeast 313 360 11,000 -484 Descending Indianapolis Center
Wed 01:04:51 PM 38.7494 -86.3506 140° Southeast 296 341 10,600 -968 Descending Indianapolis Center
Wed 01:05:53 PM 38.6883 -86.3028 149° Southeast 263 303 9,000 -1,694 Descending Indianapolis Center
Wed 01:06:55 PM 38.6300 -86.2558 148° Southeast 250 288 7,100 -1,452 Descending Indianapolis Center
Wed 01:07:57 PM 38.5683 -86.2064 148° Southeast 256 295 6,000 -532 Descending Indianapolis Center
Wed 01:08:59 PM 38.5083 -86.1581 148° Southeast 255 293 6,000  Level Indianapolis Center
Wed 01:10:01 PM 38.4486 -86.1108 148° Southeast 252 290 6,000  Level Indianapolis Center
Wed 01:11:03 PM 38.3900 -86.0642 148° Southeast 249 287 6,000  Level Indianapolis Center
Wed 01:12:05 PM 38.3200 -86.0072 147° Southeast 247 284 6,000 -48 Level Indianapolis Center
Wed 01:13:07 PM 38.2603 -85.9608 149° Southeast 250 288 5,900 -919 Descending Indianapolis Center
Wed 01:14:09 PM 38.1969 -85.9247 156° South 259 298 4,100 -919 Descending Indianapolis Center
Wed 01:15:11 PM 38.1514 -85.8689 136° Southeast 235 270 4,000 -387 Descending Indianapolis Center
Wed 01:16:13 PM 38.0994 -85.8286 149° Southeast 224 258 3,300 -726 Descending Indianapolis Center
Wed 01:17:15 PM 38.0483 -85.7875 148° Southeast 220 253 2,500 -387 Descending Indianapolis Center
Wed 01:18:17 PM 37.9989 -85.7481 148° Southeast 219 252 2,500  Level Indianapolis Center

Login

Don't have an account? Register now (free) for customized features, flight alerts, and more!